Time;durP1;ratioP1;P1;durP2;ratioP2;P2;SDS_P1;SDS_P2;PMS_P1;PMS_P2;Temp;Humidity;BMP_temperature;BMP_pressure;BME280_temperature;BME280_humidity;BME280_pressure;Samples;Min_cycle;Max_cycle;Signal;HPM_P1;HPM_P2
2023/05/24 00:02:25;;;;;;;21.02;5.18;;;8.90;99.90;;;;;;5010794;28;20037;-63
2023/05/24 00:04:51;;;;;;;26.45;5.93;;;8.90;99.90;;;;;;5011438;28;20050;-63
2023/05/24 00:07:17;;;;;;;23.73;5.28;;;8.90;99.90;;;;;;5003626;28;20049;-63
2023/05/24 00:09:43;;;;;;;19.70;5.20;;;8.80;99.90;;;;;;5006826;28;20026;-63
2023/05/24 00:12:08;;;;;;;19.48;5.28;;;8.80;99.90;;;;;;5011378;28;20080;-63
2023/05/24 00:14:34;;;;;;;15.25;4.68;;;8.80;99.90;;;;;;5004908;28;20515;-63
2023/05/24 00:16:59;;;;;;;17.40;4.88;;;8.80;99.90;;;;;;5010071;28;20049;-63
2023/05/24 00:19:26;;;;;;;22.67;4.70;;;8.70;99.90;;;;;;5012701;28;20038;-63
2023/05/24 00:21:52;;;;;;;24.55;5.70;;;8.70;99.90;;;;;;5010660;28;20038;-63
2023/05/24 00:24:17;;;;;;;29.35;5.55;;;8.70;99.90;;;;;;5001754;28;20052;-63
2023/05/24 00:26:43;;;;;;;22.65;5.38;;;8.70;99.90;;;;;;5011886;28;20038;-63
2023/05/24 00:29:09;;;;;;;20.38;5.53;;;8.70;99.90;;;;;;5003419;28;20043;-63
2023/05/24 00:31:34;;;;;;;20.30;5.68;;;8.70;99.90;;;;;;5011246;28;20038;-63
2023/05/24 00:34:00;;;;;;;15.80;6.13;;;8.70;99.90;;;;;;5011363;28;20543;-63
2023/05/24 00:36:26;;;;;;;20.10;4.80;;;8.70;99.90;;;;;;5010608;28;20068;-63
2023/05/24 00:38:52;;;;;;;23.63;6.03;;;8.70;99.90;;;;;;5012283;28;20074;-63
2023/05/24 00:41:18;;;;;;;20.73;5.50;;;8.70;99.90;;;;;;5012110;28;20081;-63
2023/05/24 00:43:44;;;;;;;18.65;4.80;;;8.70;99.90;;;;;;5011186;28;20034;-63
2023/05/24 00:46:25;;;;;;;17.27;5.55;;;8.80;99.90;;;;;;5008179;28;20057;-63
2023/05/24 00:48:51;;;;;;;19.60;5.35;;;8.80;99.90;;;;;;5007945;28;20109;-63
2023/05/24 00:51:17;;;;;;;19.30;5.03;;;8.80;99.90;;;;;;5004224;28;20125;-63
2023/05/24 00:53:46;;;;;;;21.13;5.45;;;8.80;99.90;;;;;;5010904;28;20061;-63
2023/05/24 00:56:16;;;;;;;21.92;5.20;;;8.90;99.90;;;;;;5011476;28;20033;-63
2023/05/24 00:58:42;;;;;;;20.05;5.18;;;8.90;99.90;;;;;;5011638;28;20527;-63
2023/05/24 01:01:08;;;;;;;21.38;4.70;;;8.90;99.90;;;;;;5012089;28;20045;-63
2023/05/24 01:03:34;;;;;;;18.23;5.25;;;8.80;99.90;;;;;;5009475;28;20384;-63
2023/05/24 01:06:02;;;;;;;21.80;5.63;;;8.80;99.90;;;;;;5004182;28;20112;-62
2023/05/24 01:08:54;;;;;;;20.80;5.18;;;8.80;99.90;;;;;;5010810;28;20048;-63
2023/05/24 01:11:47;;;;;;;20.05;5.82;;;8.80;99.90;;;;;;5006691;28;20121;-63
2023/05/24 01:14:40;;;;;;;20.48;5.47;;;8.80;99.90;;;;;;4994524;28;20054;-62
2023/05/24 01:17:17;;;;;;;22.55;5.40;;;8.70;99.90;;;;;;5012764;28;20172;-62
2023/05/24 01:20:00;;;;;;;18.08;5.18;;;8.70;99.90;;;;;;5005776;28;20091;-63
2023/05/24 01:22:47;;;;;;;26.25;5.53;;;8.60;99.90;;;;;;5001214;28;20515;-62
2023/05/24 01:25:37;;;;;;;23.35;5.57;;;8.60;99.90;;;;;;5015146;28;20427;-63
2023/05/24 01:28:05;;;;;;;20.67;6.03;;;8.60;99.90;;;;;;5012781;28;20129;-63
2023/05/24 01:30:32;;;;;;;25.80;5.68;;;8.60;99.90;;;;;;5007363;28;20053;-62
2023/05/24 01:32:58;;;;;;;18.70;5.70;;;8.60;99.90;;;;;;5015007;28;20041;-63
2023/05/24 01:35:23;;;;;;;19.15;5.65;;;8.60;99.90;;;;;;5014628;28;20088;-62
2023/05/24 01:37:49;;;;;;;20.95;5.93;;;8.60;99.90;;;;;;5014775;28;20117;-63
2023/05/24 01:40:15;;;;;;;23.73;5.25;;;8.60;99.90;;;;;;5034524;22;20097;-65
2023/05/24 01:42:51;;;;;;;18.85;5.05;;;8.60;99.90;;;;;;5070159;28;20135;-65
2023/05/24 01:45:34;;;;;;;19.58;5.43;;;8.60;99.90;;;;;;5072070;28;20076;-66
2023/05/24 01:48:24;;;;;;;24.05;5.63;;;8.60;99.90;;;;;;5070571;28;20050;-65
2023/05/24 01:51:00;;;;;;;25.10;6.28;;;8.60;99.90;;;;;;5077661;28;20524;-65
2023/05/24 01:53:32;;;;;;;23.08;5.78;;;8.60;99.90;;;;;;5073431;28;20055;-65
2023/05/24 01:56:00;;;;;;;26.13;5.88;;;8.70;99.90;;;;;;5075947;28;20043;-65
2023/05/24 01:58:28;;;;;;;23.77;5.60;;;8.60;99.90;;;;;;5094825;28;20374;-65
2023/05/24 02:00:54;;;;;;;26.48;6.38;;;8.60;99.90;;;;;;5066116;28;20596;-66
2023/05/24 02:03:20;;;;;;;21.27;6.13;;;8.60;99.90;;;;;;5073652;28;20035;-66
2023/05/24 02:05:46;;;;;;;31.98;6.30;;;8.70;99.90;;;;;;5073052;28;20036;-66
2023/05/24 02:08:12;;;;;;;26.95;6.22;;;8.70;99.90;;;;;;5074604;28;20044;-66
2023/05/24 02:10:39;;;;;;;19.20;5.60;;;8.70;99.90;;;;;;5073803;28;20048;-66
2023/05/24 02:13:05;;;;;;;18.35;5.95;;;8.70;99.90;;;;;;5072931;28;20449;-66
2023/05/24 02:15:31;;;;;;;23.55;6.07;;;8.70;99.90;;;;;;5072821;28;20036;-66
2023/05/24 02:17:57;;;;;;;25.23;5.93;;;8.80;99.90;;;;;;5073013;28;20044;-66
2023/05/24 02:20:23;;;;;;;21.05;6.40;;;8.80;99.90;;;;;;5073157;28;20033;-66
2023/05/24 02:22:49;;;;;;;18.80;5.50;;;8.80;99.90;;;;;;5072548;28;20494;-66
2023/05/24 02:25:15;;;;;;;23.05;6.07;;;8.80;99.90;;;;;;5071926;28;20048;-66
2023/05/24 02:27:45;;;;;;;24.60;6.70;;;8.80;99.90;;;;;;5071854;28;20082;-66
2023/05/24 02:30:11;;;;;;;24.43;5.80;;;8.80;99.90;;;;;;5072824;28;20098;-66
2023/05/24 02:32:37;;;;;;;25.38;5.80;;;8.70;99.90;;;;;;5074322;28;20433;-66
2023/05/24 02:35:03;;;;;;;24.02;6.00;;;8.70;99.90;;;;;;5071307;28;20045;-66
2023/05/24 02:37:28;;;;;;;20.90;6.15;;;8.80;99.90;;;;;;5073998;28;20044;-66
2023/05/24 02:39:54;;;;;;;23.80;5.45;;;8.70;99.90;;;;;;5069926;28;20035;-66
2023/05/24 02:42:20;;;;;;;17.80;6.35;;;8.70;99.90;;;;;;5071283;28;20519;-66
2023/05/24 02:44:47;;;;;;;23.48;6.45;;;8.70;99.90;;;;;;5072471;28;20032;-66
2023/05/24 02:47:14;;;;;;;24.13;5.70;;;8.70;99.90;;;;;;5075846;28;20032;-66
2023/05/24 02:49:40;;;;;;;23.60;5.70;;;8.70;99.90;;;;;;5077653;28;20032;-66
2023/05/24 02:52:05;;;;;;;23.20;5.72;;;8.70;99.90;;;;;;5069128;28;20029;-66
2023/05/24 02:54:31;;;;;;;19.08;5.40;;;8.70;99.90;;;;;;5078411;28;20408;-66
2023/05/24 02:56:57;;;;;;;25.23;6.22;;;8.70;99.90;;;;;;5075939;28;20037;-66
2023/05/24 02:59:23;;;;;;;25.98;5.90;;;8.90;99.90;;;;;;5071887;28;20569;-66
2023/05/24 03:01:49;;;;;;;22.02;5.47;;;8.80;99.90;;;;;;5072595;28;20074;-66
2023/05/24 03:04:15;;;;;;;29.00;6.20;;;8.80;99.90;;;;;;5072105;28;20029;-66
2023/05/24 03:06:40;;;;;;;27.33;6.63;;;8.90;99.90;;;;;;5080381;28;20397;-66
2023/05/24 03:09:06;;;;;;;25.30;6.28;;;8.90;99.90;;;;;;5073850;28;20501;-66
2023/05/24 03:11:32;;;;;;;22.33;5.95;;;8.90;99.90;;;;;;5071877;28;20481;-66
2023/05/24 03:13:57;;;;;;;28.05;6.38;;;9.00;99.90;;;;;;5076201;28;20089;-66
2023/05/24 03:16:24;;;;;;;21.13;5.90;;;9.00;99.90;;;;;;5073466;28;20489;-66
2023/05/24 03:18:49;;;;;;;21.95;5.20;;;8.90;99.90;;;;;;5071253;28;20036;-66
2023/05/24 03:21:16;;;;;;;21.80;5.50;;;9.00;99.90;;;;;;5073042;28;20528;-66
2023/05/24 03:23:42;;;;;;;24.65;6.60;;;9.00;99.90;;;;;;5071786;28;20045;-66
2023/05/24 03:26:08;;;;;;;21.35;6.25;;;8.90;99.90;;;;;;5070311;28;21071;-66
2023/05/24 03:28:33;;;;;;;27.75;6.45;;;8.90;99.90;;;;;;5071197;28;20047;-66
2023/05/24 03:30:59;;;;;;;18.25;5.97;;;8.90;99.90;;;;;;5070990;28;20410;-66
2023/05/24 03:33:25;;;;;;;20.92;5.45;;;8.90;99.90;;;;;;5069981;28;20191;-66
2023/05/24 03:35:50;;;;;;;21.23;6.20;;;8.90;99.90;;;;;;5069482;28;20115;-66
2023/05/24 03:38:16;;;;;;;23.40;6.03;;;8.90;99.90;;;;;;5069159;28;20674;-66
2023/05/24 03:40:41;;;;;;;18.98;5.53;;;8.90;99.90;;;;;;5068722;28;20037;-66
2023/05/24 03:43:07;;;;;;;22.73;6.00;;;8.90;99.90;;;;;;5069658;28;20040;-66
2023/05/24 03:45:33;;;;;;;21.58;5.75;;;8.90;99.90;;;;;;5071408;28;20043;-66
2023/05/24 03:47:58;;;;;;;24.17;6.72;;;8.90;99.90;;;;;;5089124;28;20039;-66
2023/05/24 03:50:24;;;;;;;21.05;5.43;;;8.90;99.90;;;;;;5071269;28;20543;-65
2023/05/24 03:52:49;;;;;;;24.60;5.55;;;9.00;99.90;;;;;;5070137;28;20041;-66
2023/05/24 03:55:15;;;;;;;23.27;6.13;;;9.00;99.90;;;;;;5071733;28;20032;-66
2023/05/24 03:57:41;;;;;;;23.42;5.90;;;9.00;99.90;;;;;;5072149;28;20041;-65
2023/05/24 04:00:08;;;;;;;22.42;5.78;;;9.00;99.90;;;;;;5071290;28;20041;-65
2023/05/24 04:02:36;;;;;;;21.65;5.60;;;9.00;99.90;;;;;;5062337;28;20048;-66
2023/05/24 04:05:12;;;;;;;23.98;5.82;;;9.00;99.90;;;;;;5068641;28;20442;-65
2023/05/24 04:07:38;;;;;;;22.27;5.88;;;9.00;99.90;;;;;;5071106;28;20429;-66
2023/05/24 04:10:05;;;;;;;20.38;6.20;;;9.10;99.90;;;;;;5070233;28;20033;-65
2023/05/24 04:12:31;;;;;;;21.90;5.75;;;9.10;99.90;;;;;;5067652;28;20044;-66
2023/05/24 04:14:57;;;;;;;23.63;6.43;;;9.10;99.90;;;;;;5069205;28;20225;-66
2023/05/24 04:17:24;;;;;;;25.85;6.28;;;9.10;99.90;;;;;;5071534;28;20054;-66
2023/05/24 04:19:50;;;;;;;25.48;5.43;;;9.10;99.90;;;;;;5070500;28;20090;-66
2023/05/24 04:22:17;;;;;;;20.98;5.22;;;9.20;99.90;;;;;;5072441;28;20105;-66
2023/05/24 04:24:46;;;;;;;24.02;6.18;;;9.20;99.90;;;;;;5070340;28;20040;-65
2023/05/24 04:27:12;;;;;;;25.83;5.93;;;9.20;99.90;;;;;;5069210;28;20034;-65
2023/05/24 04:29:39;;;;;;;20.73;5.15;;;9.20;99.90;;;;;;5066262;28;20040;-65
2023/05/24 04:32:05;;;;;;;24.75;6.05;;;9.20;99.90;;;;;;5068384;28;20044;-65
2023/05/24 04:34:32;;;;;;;14.77;5.35;;;9.20;99.90;;;;;;5068026;28;20081;-65
2023/05/24 04:36:59;;;;;;;17.90;5.50;;;9.30;99.90;;;;;;5069227;28;20040;-65
2023/05/24 04:39:25;;;;;;;25.20;6.00;;;9.40;99.90;;;;;;5069444;28;20067;-65
2023/05/24 04:41:51;;;;;;;21.02;5.95;;;9.40;99.90;;;;;;5061287;28;20451;-65
2023/05/24 04:44:18;;;;;;;23.05;6.35;;;9.50;99.90;;;;;;5070619;28;20076;-65
2023/05/24 04:46:43;;;;;;;21.38;4.93;;;9.50;99.90;;;;;;5073495;28;20047;-65
2023/05/24 04:49:09;;;;;;;17.10;5.45;;;9.50;99.90;;;;;;5071205;28;20033;-66
2023/05/24 04:51:37;;;;;;;23.77;5.53;;;9.50;99.90;;;;;;5069296;28;20093;-66
2023/05/24 04:54:07;;;;;;;18.45;5.35;;;9.50;99.90;;;;;;5069477;28;20090;-66
2023/05/24 04:56:34;;;;;;;23.47;5.60;;;9.60;99.90;;;;;;5076402;28;20157;-66
2023/05/24 04:58:59;;;;;;;20.35;4.93;;;9.60;99.90;;;;;;5070105;28;20037;-66
2023/05/24 05:01:25;;;;;;;21.80;5.43;;;9.60;99.90;;;;;;5067754;28;20036;-66
2023/05/24 05:03:50;;;;;;;21.02;5.18;;;9.60;99.90;;;;;;5076808;28;20024;-66
2023/05/24 05:06:16;;;;;;;18.60;5.20;;;9.60;99.90;;;;;;5073066;28;20718;-66
2023/05/24 05:08:42;;;;;;;20.13;5.43;;;9.70;99.90;;;;;;5070158;28;20040;-66
2023/05/24 05:11:08;;;;;;;21.95;5.90;;;9.70;99.90;;;;;;5070272;28;20094;-66
2023/05/24 05:13:34;;;;;;;18.45;5.80;;;9.70;99.90;;;;;;5073670;28;20055;-66
2023/05/24 05:16:00;;;;;;;18.98;5.13;;;9.80;99.90;;;;;;5070727;28;20032;-66
2023/05/24 05:18:26;;;;;;;27.27;5.80;;;9.80;99.90;;;;;;5069062;28;20070;-66
2023/05/24 05:20:51;;;;;;;18.05;4.82;;;9.90;99.90;;;;;;5070105;28;20036;-66
2023/05/24 05:23:17;;;;;;;22.98;5.50;;;9.90;99.90;;;;;;5078995;28;20094;-66
2023/05/24 05:25:43;;;;;;;28.25;5.65;;;10.00;99.90;;;;;;5069491;28;20039;-66
2023/05/24 05:28:09;;;;;;;21.65;5.40;;;10.10;99.90;;;;;;5078679;28;20040;-66
2023/05/24 05:30:34;;;;;;;19.50;4.93;;;10.10;99.90;;;;;;5072863;28;20032;-66
2023/05/24 05:33:00;;;;;;;23.58;5.45;;;10.20;99.90;;;;;;5072450;28;20504;-65
2023/05/24 05:35:25;;;;;;;24.63;5.15;;;10.30;99.90;;;;;;5070362;28;20843;-66
2023/05/24 05:37:51;;;;;;;21.50;5.78;;;10.40;99.90;;;;;;5069366;28;20045;-66
2023/05/24 05:40:16;;;;;;;23.73;6.03;;;10.60;99.90;;;;;;5069706;28;20410;-66
2023/05/24 05:42:42;;;;;;;20.25;5.60;;;10.70;99.90;;;;;;5071111;28;20078;-66
2023/05/24 05:45:08;;;;;;;21.98;4.72;;;10.80;99.90;;;;;;5069865;28;20083;-66
2023/05/24 05:47:34;;;;;;;23.05;6.15;;;10.80;99.90;;;;;;5070598;28;20460;-66
2023/05/24 05:49:59;;;;;;;22.17;5.28;;;10.90;99.90;;;;;;5069916;28;20062;-66
2023/05/24 05:52:25;;;;;;;20.98;4.72;;;11.00;99.90;;;;;;5070916;28;20174;-66
2023/05/24 05:54:50;;;;;;;25.13;4.70;;;11.00;99.90;;;;;;5071559;28;20036;-66
2023/05/24 05:57:18;;;;;;;20.63;4.68;;;11.00;99.90;;;;;;5072921;28;20089;-66
2023/05/24 05:59:44;;;;;;;19.95;4.60;;;11.10;99.90;;;;;;5073683;28;20040;-66
2023/05/24 06:02:11;;;;;;;18.48;4.38;;;11.30;99.90;;;;;;5071400;28;20032;-66
2023/05/24 06:04:37;;;;;;;16.63;4.63;;;11.40;99.90;;;;;;5065574;28;20055;-66
2023/05/24 06:07:03;;;;;;;15.75;4.50;;;11.60;99.90;;;;;;5077046;28;20044;-66
2023/05/24 06:09:29;;;;;;;12.65;4.32;;;11.70;99.90;;;;;;5073107;28;20090;-66
2023/05/24 06:11:54;;;;;;;19.33;4.57;;;11.80;99.90;;;;;;5071912;28;20041;-66
2023/05/24 06:14:21;;;;;;;21.30;4.75;;;11.80;99.90;;;;;;5070070;28;20113;-66
2023/05/24 06:16:47;;;;;;;23.30;4.90;;;11.80;99.90;;;;;;5081983;28;20101;-66
2023/05/24 06:19:12;;;;;;;16.85;3.83;;;11.70;99.90;;;;;;5072108;28;20513;-66
2023/05/24 06:21:45;;;;;;;17.23;4.50;;;11.60;99.90;;;;;;5072215;28;20036;-66
2023/05/24 06:24:12;;;;;;;18.95;4.47;;;11.60;99.90;;;;;;5070650;28;20029;-66
2023/05/24 06:26:37;;;;;;;16.58;4.38;;;11.60;99.90;;;;;;5067383;28;20036;-66
2023/05/24 06:29:03;;;;;;;26.35;4.82;;;11.50;99.90;;;;;;5074707;28;20086;-66
2023/05/24 06:31:28;;;;;;;16.35;4.22;;;11.50;99.90;;;;;;5076298;28;20123;-66
2023/05/24 06:33:54;;;;;;;25.63;5.15;;;11.60;99.90;;;;;;5073862;28;20045;-66
2023/05/24 06:36:20;;;;;;;19.05;4.28;;;11.70;99.90;;;;;;5073112;28;20119;-66
2023/05/24 06:38:45;;;;;;;17.88;5.07;;;11.90;99.90;;;;;;5072805;28;20064;-66
2023/05/24 06:41:11;;;;;;;20.23;4.45;;;12.00;99.90;;;;;;5072472;28;20040;-66
2023/05/24 06:43:36;;;;;;;28.02;5.10;;;12.10;99.90;;;;;;5071359;28;20560;-66
2023/05/24 06:46:02;;;;;;;16.90;4.55;;;12.30;99.90;;;;;;5071713;28;20036;-66
2023/05/24 06:48:28;;;;;;;16.83;4.90;;;12.40;99.90;;;;;;5070139;28;20066;-66
2023/05/24 06:50:53;;;;;;;20.73;4.53;;;12.40;99.90;;;;;;5070063;28;20498;-66
2023/05/24 06:53:19;;;;;;;17.15;4.18;;;12.50;99.90;;;;;;5072586;28;20463;-66
2023/05/24 06:55:44;;;;;;;23.42;5.25;;;12.50;99.90;;;;;;5073820;28;20040;-67
2023/05/24 06:58:13;;;;;;;16.05;4.07;;;12.60;99.90;;;;;;5072010;28;20036;-67
2023/05/24 07:00:40;;;;;;;14.80;4.47;;;12.60;99.90;;;;;;5071321;28;20051;-67
2023/05/24 07:03:06;;;;;;;19.05;4.93;;;12.70;99.90;;;;;;5070619;28;21932;-66
2023/05/24 07:05:31;;;;;;;19.38;5.05;;;12.70;99.90;;;;;;5076329;28;20039;-67
2023/05/24 07:07:57;;;;;;;20.85;4.60;;;12.70;99.90;;;;;;5077440;28;20040;-67
2023/05/24 07:10:23;;;;;;;18.67;4.25;;;12.70;99.90;;;;;;5080332;28;20040;-67
2023/05/24 07:12:48;;;;;;;19.20;4.30;;;12.70;99.90;;;;;;5070382;28;20040;-66
2023/05/24 07:15:14;;;;;;;16.70;4.22;;;12.60;99.90;;;;;;5085533;28;20059;-67
2023/05/24 07:17:39;;;;;;;14.95;3.92;;;12.60;99.90;;;;;;5076494;28;20142;-67
2023/05/24 07:20:09;;;;;;;13.57;3.67;;;12.70;99.90;;;;;;5072932;28;20037;-67
2023/05/24 07:22:35;;;;;;;16.85;4.18;;;12.90;99.90;;;;;;5073007;28;20516;-66
2023/05/24 07:25:00;;;;;;;17.45;3.92;;;13.00;99.90;;;;;;5072283;28;20029;-67
2023/05/24 07:27:26;;;;;;;14.02;4.45;;;13.00;99.90;;;;;;5077970;28;20032;-67
2023/05/24 07:29:52;;;;;;;19.17;4.35;;;13.10;99.90;;;;;;5084692;28;20043;-66
2023/05/24 07:32:17;;;;;;;15.32;4.03;;;13.20;99.90;;;;;;5074770;28;20028;-66
2023/05/24 07:34:43;;;;;;;14.95;3.72;;;13.30;99.90;;;;;;5072203;28;20094;-67
2023/05/24 07:37:09;;;;;;;18.40;4.10;;;13.50;99.90;;;;;;5071335;28;20071;-66
2023/05/24 07:39:34;;;;;;;16.45;3.92;;;13.80;99.90;;;;;;5072292;28;20040;-66
2023/05/24 07:42:00;;;;;;;18.10;3.90;;;13.80;99.90;;;;;;5072480;22;20140;-61
2023/05/24 07:44:26;;;;;;;14.68;3.53;;;13.70;99.90;;;;;;5051722;28;20068;-61
2023/05/24 07:46:51;;;;;;;16.65;3.90;;;13.60;99.90;;;;;;5052846;28;20033;-62
2023/05/24 07:49:17;;;;;;;14.23;3.53;;;13.60;99.90;;;;;;5052927;28;20483;-61
2023/05/24 07:51:42;;;;;;;11.80;3.30;;;13.50;99.90;;;;;;5052274;28;20041;-62
2023/05/24 07:54:08;;;;;;;18.55;4.20;;;13.50;99.90;;;;;;5048592;28;20171;-62
2023/05/24 07:56:34;;;;;;;13.48;3.40;;;13.30;99.90;;;;;;5047175;28;20383;-62
2023/05/24 07:59:03;;;;;;;14.35;3.80;;;13.20;99.90;;;;;;5050892;28;20045;-62
2023/05/24 08:01:31;;;;;;;14.35;3.20;;;13.10;99.90;;;;;;5043961;28;20431;-62
2023/05/24 08:03:56;;;;;;;13.07;3.97;;;13.10;99.90;;;;;;5049396;28;20524;-62
2023/05/24 08:06:23;;;;;;;14.55;4.00;;;13.20;99.90;;;;;;5052531;28;20049;-62
2023/05/24 08:08:49;;;;;;;10.35;3.17;;;13.20;99.90;;;;;;5048175;28;20124;-62
2023/05/24 08:11:14;;;;;;;15.57;4.22;;;13.30;99.90;;;;;;5049451;28;20091;-62
2023/05/24 08:13:40;;;;;;;11.80;3.08;;;13.40;99.90;;;;;;5049439;28;20041;-62
2023/05/24 08:16:06;;;;;;;14.10;3.20;;;13.60;99.90;;;;;;5051541;28;20144;-62
2023/05/24 08:18:32;;;;;;;13.55;3.53;;;13.70;99.90;;;;;;5051922;28;20041;-62
2023/05/24 08:20:57;;;;;;;10.55;3.25;;;13.70;99.90;;;;;;5050382;28;20037;-61
2023/05/24 08:23:23;;;;;;;12.30;3.03;;;13.60;99.90;;;;;;5051184;28;20045;-62
2023/05/24 08:25:48;;;;;;;14.48;3.25;;;13.50;99.90;;;;;;5051918;28;20033;-61
2023/05/24 08:28:15;;;;;;;12.75;2.90;;;13.50;99.90;;;;;;5044831;28;20032;-62
2023/05/24 08:30:41;;;;;;;10.57;3.28;;;13.70;99.90;;;;;;5049895;28;20537;-62
2023/05/24 08:33:06;;;;;;;14.02;3.53;;;13.80;99.90;;;;;;5051394;28;20045;-62
2023/05/24 08:35:32;;;;;;;12.18;3.38;;;13.90;99.90;;;;;;5045344;28;20041;-62
2023/05/24 08:37:58;;;;;;;13.18;3.15;;;13.90;99.90;;;;;;5050144;28;20091;-62
2023/05/24 08:40:24;;;;;;;12.27;3.03;;;13.80;99.90;;;;;;5049721;28;20039;-62
2023/05/24 08:42:51;;;;;;;12.15;3.38;;;13.70;99.90;;;;;;5050064;28;20045;-62
2023/05/24 08:45:17;;;;;;;12.98;3.00;;;13.60;99.90;;;;;;5051417;28;20490;-62
2023/05/24 08:47:45;;;;;;;13.07;3.45;;;13.60;99.90;;;;;;5051748;28;20041;-62
2023/05/24 08:50:12;;;;;;;11.98;3.65;;;13.60;99.90;;;;;;5051486;28;20029;-62
2023/05/24 08:52:38;;;;;;;16.08;3.80;;;13.60;99.90;;;;;;5051599;28;20072;-62
2023/05/24 08:55:05;;;;;;;13.02;3.28;;;13.50;99.90;;;;;;5049966;28;20045;-62
2023/05/24 08:57:33;;;;;;;14.27;3.33;;;13.60;99.90;;;;;;5050245;28;20049;-62
2023/05/24 08:59:59;;;;;;;13.27;3.20;;;13.60;99.90;;;;;;5048271;28;20525;-61
2023/05/24 09:02:25;;;;;;;15.73;3.58;;;13.70;99.90;;;;;;5045918;28;20068;-62
2023/05/24 09:04:52;;;;;;;14.55;3.65;;;14.00;99.90;;;;;;5050945;28;20398;-62
2023/05/24 09:07:20;;;;;;;9.93;3.40;;;14.20;99.90;;;;;;5047016;28;20486;-61
2023/05/24 09:09:49;;;;;;;13.20;3.70;;;14.30;99.90;;;;;;5046685;28;20087;-61
2023/05/24 09:12:17;;;;;;;15.43;3.45;;;14.20;99.90;;;;;;5051473;28;20121;-61
2023/05/24 09:14:45;;;;;;;14.50;3.55;;;14.10;99.90;;;;;;5049343;28;20056;-61
2023/05/24 09:17:14;;;;;;;13.20;3.15;;;13.90;99.90;;;;;;5051160;28;20402;-62
2023/05/24 09:19:45;;;;;;;9.40;3.03;;;13.80;99.90;;;;;;5050949;28;20049;-61
2023/05/24 09:22:18;;;;;;;12.05;3.60;;;13.80;99.90;;;;;;5049701;28;20048;-61
2023/05/24 09:24:47;;;;;;;13.43;3.50;;;13.80;99.90;;;;;;5050915;28;20108;-61
2023/05/24 09:27:20;;;;;;;15.80;3.70;;;13.80;99.90;;;;;;5051630;28;20041;-61
2023/05/24 09:29:47;;;;;;;14.25;4.13;;;13.80;99.90;;;;;;5044746;28;20117;-61
2023/05/24 09:32:14;;;;;;;10.75;3.72;;;13.80;99.90;;;;;;5035891;28;20052;-61
2023/05/24 09:34:41;;;;;;;15.57;3.80;;;13.80;99.90;;;;;;5052006;28;20043;-61
2023/05/24 09:37:20;;;;;;;13.30;3.97;;;13.80;99.90;;;;;;5053947;28;20072;-61
2023/05/24 09:39:47;;;;;;;17.10;4.18;;;13.80;99.90;;;;;;5055118;28;20508;-61
2023/05/24 09:42:23;;;;;;;15.25;3.97;;;13.70;99.90;;;;;;5045349;28;20048;-61
2023/05/24 09:45:15;;;;;;;14.35;4.03;;;13.60;99.90;;;;;;5053255;28;20041;-61
2023/05/24 09:47:43;;;;;;;15.70;3.90;;;13.60;99.90;;;;;;5055396;28;20040;-61
2023/05/24 09:50:14;;;;;;;12.85;3.78;;;13.60;99.90;;;;;;5054141;28;20036;-61
2023/05/24 09:52:40;;;;;;;15.57;3.85;;;13.60;99.90;;;;;;5055046;28;20060;-61
2023/05/24 09:55:17;;;;;;;12.80;3.60;;;13.70;99.90;;;;;;5051323;28;20033;-61
2023/05/24 09:57:44;;;;;;;13.73;3.30;;;13.70;99.90;;;;;;5045957;28;20111;-61
2023/05/24 10:00:16;;;;;;;16.30;4.22;;;13.90;99.90;;;;;;5052735;28;20033;-62
2023/05/24 10:02:42;;;;;;;11.23;3.00;;;14.20;99.90;;;;;;5045870;28;20090;-62
2023/05/24 10:05:10;;;;;;;8.70;3.00;;;14.40;99.90;;;;;;5044407;28;20040;-62
2023/05/24 10:07:36;;;;;;;10.07;3.35;;;14.40;99.90;;;;;;5054712;28;20039;-62
2023/05/24 10:10:04;;;;;;;11.05;2.92;;;14.50;99.90;;;;;;5053220;28;20398;-62
2023/05/24 10:12:30;;;;;;;5.97;2.67;;;14.40;99.90;;;;;;5054618;28;20040;-62
2023/05/24 10:14:56;;;;;;;7.55;2.50;;;14.50;99.90;;;;;;5054044;28;20051;-62
2023/05/24 10:17:23;;;;;;;9.43;2.70;;;14.50;99.90;;;;;;5052350;28;20045;-62
2023/05/24 10:19:51;;;;;;;9.43;2.50;;;14.60;99.90;;;;;;5044145;28;20060;-62
2023/05/24 10:22:17;;;;;;;10.32;3.08;;;14.60;99.90;;;;;;5049289;28;20089;-62
2023/05/24 10:24:49;;;;;;;9.68;2.80;;;14.50;99.90;;;;;;5048846;28;20033;-62
2023/05/24 10:27:20;;;;;;;13.07;2.78;;;14.80;99.90;;;;;;5053289;28;20067;-62
2023/05/24 10:30:00;;;;;;;9.77;2.83;;;15.20;99.90;;;;;;5047855;28;20037;-62
2023/05/24 10:32:30;;;;;;;9.97;2.57;;;15.40;99.90;;;;;;5045756;28;20071;-62
2023/05/24 10:34:58;;;;;;;7.03;2.80;;;15.40;99.90;;;;;;5049126;28;20494;-62
2023/05/24 10:37:27;;;;;;;6.80;2.40;;;15.30;99.90;;;;;;5043773;28;20679;-62
2023/05/24 10:39:53;;;;;;;7.28;2.78;;;15.10;99.90;;;;;;5049807;28;20041;-61
2023/05/24 10:42:19;;;;;;;6.55;2.55;;;15.00;99.90;;;;;;5053739;28;20040;-62
2023/05/24 10:44:45;;;;;;;8.77;2.67;;;15.00;99.90;;;;;;5051377;28;20109;-61
2023/05/24 10:47:11;;;;;;;7.07;2.38;;;15.00;99.90;;;;;;5052286;28;20060;-62
2023/05/24 10:49:50;;;;;;;7.68;2.45;;;14.90;99.90;;;;;;5052965;28;20048;-62
2023/05/24 10:52:16;;;;;;;9.90;3.03;;;14.80;99.90;;;;;;5047812;28;20037;-62
2023/05/24 10:55:06;;;;;;;8.77;2.53;;;14.80;99.90;;;;;;5041588;28;20044;-62
2023/05/24 10:57:33;;;;;;;9.90;2.90;;;14.80;99.90;;;;;;5053529;28;20045;-62
2023/05/24 11:00:26;;;;;;;10.73;2.97;;;14.70;99.90;;;;;;5050277;28;20132;-63
2023/05/24 11:03:02;;;;;;;10.65;2.75;;;14.70;99.90;;;;;;5051478;28;20036;-61
2023/05/24 11:05:49;;;;;;;10.40;3.42;;;14.60;99.90;;;;;;5051201;28;20029;-61
2023/05/24 11:08:34;;;;;;;10.95;2.88;;;14.60;99.90;;;;;;5044788;28;20064;-62
2023/05/24 11:11:10;;;;;;;9.48;3.17;;;14.50;99.90;;;;;;5050917;28;20045;-61
2023/05/24 11:13:37;;;;;;;8.48;2.85;;;14.60;99.90;;;;;;5052285;28;20029;-62
2023/05/24 11:16:04;;;;;;;8.85;3.00;;;14.60;99.90;;;;;;5052959;28;20037;-62
2023/05/24 11:18:30;;;;;;;11.75;3.15;;;14.60;99.90;;;;;;5052177;28;20510;-62
2023/05/24 11:20:58;;;;;;;9.82;3.10;;;14.70;99.90;;;;;;5042396;28;20080;-61
2023/05/24 11:23:24;;;;;;;12.50;3.25;;;14.70;99.90;;;;;;5052334;28;20052;-62
2023/05/24 11:25:51;;;;;;;10.07;2.70;;;14.70;99.90;;;;;;5045036;28;20383;-61
2023/05/24 11:28:17;;;;;;;9.77;2.95;;;14.70;99.90;;;;;;5052063;28;20147;-62
2023/05/24 11:30:44;;;;;;;11.73;3.42;;;14.80;99.90;;;;;;5052703;28;20522;-62
2023/05/24 11:33:17;;;;;;;13.65;2.88;;;14.70;99.90;;;;;;5053068;28;20045;-62
2023/05/24 11:35:43;;;;;;;8.40;2.55;;;14.60;99.90;;;;;;5052854;28;20548;-62
2023/05/24 11:38:13;;;;;;;10.23;2.50;;;14.50;99.90;;;;;;5051256;28;20565;-61
2023/05/24 11:40:43;;;;;;;8.38;2.50;;;14.60;99.90;;;;;;5050402;28;20033;-62
2023/05/24 11:43:20;;;;;;;9.10;2.80;;;14.70;99.90;;;;;;5052761;28;20060;-62
2023/05/24 11:45:48;;;;;;;9.13;2.58;;;14.70;99.90;;;;;;5052145;28;20048;-61
2023/05/24 11:48:14;;;;;;;6.75;2.17;;;14.70;99.90;;;;;;5052700;28;20040;-62
2023/05/24 11:50:42;;;;;;;7.13;2.20;;;14.80;99.90;;;;;;5052545;28;20044;-62
2023/05/24 11:53:12;;;;;;;8.18;2.75;;;14.80;99.90;;;;;;5051470;28;20077;-62
2023/05/24 11:55:39;;;;;;;8.23;2.22;;;14.90;99.90;;;;;;5044310;28;20470;-62
2023/05/24 11:58:15;;;;;;;7.22;2.72;;;15.20;99.90;;;;;;5052999;28;20067;-62
2023/05/24 12:00:41;;;;;;;6.90;1.98;;;15.40;99.90;;;;;;5052278;28;20045;-62
2023/05/24 12:03:08;;;;;;;5.00;2.05;;;15.40;99.30;;;;;;5052519;28;20068;-61
2023/05/24 12:05:36;;;;;;;8.70;2.75;;;15.40;99.40;;;;;;5052575;28;20116;-61
2023/05/24 12:08:04;;;;;;;7.45;2.40;;;15.30;99.90;;;;;;5052627;28;20065;-61
2023/05/24 12:10:34;;;;;;;9.57;2.97;;;15.20;99.90;;;;;;5045658;28;20084;-61
2023/05/24 12:13:01;;;;;;;12.52;2.90;;;15.00;99.90;;;;;;5050370;28;20035;-61
2023/05/24 12:15:27;;;;;;;9.07;2.78;;;14.80;99.90;;;;;;5052093;28;20037;-61
2023/05/24 12:17:53;;;;;;;7.93;2.60;;;14.70;99.90;;;;;;5052356;28;20098;-62
2023/05/24 12:20:20;;;;;;;8.07;2.72;;;14.50;99.90;;;;;;5040116;28;20088;-62
2023/05/24 12:22:51;;;;;;;10.50;2.45;;;14.40;99.90;;;;;;5043867;28;20486;-62
2023/05/24 12:25:20;;;;;;;;;;;14.50;99.90;;;;;;5032543;28;20071;-62
2023/05/24 12:27:54;;;;;;;11.35;3.15;;;14.40;99.90;;;;;;5032118;28;20007;-62
2023/05/24 12:30:24;;;;;;;9.38;2.90;;;14.40;99.90;;;;;;5032217;28;20041;-62
2023/05/24 12:32:52;;;;;;;7.05;2.63;;;14.50;99.90;;;;;;5043368;28;20047;-62
2023/05/24 12:35:19;;;;;;;13.15;3.55;;;14.60;99.90;;;;;;5050712;28;20098;-62
2023/05/24 12:37:44;;;;;;;13.15;3.40;;;14.60;99.90;;;;;;5051887;28;20033;-62
2023/05/24 12:40:14;;;;;;;8.63;2.97;;;14.70;99.90;;;;;;5051563;28;20048;-63
2023/05/24 12:42:40;;;;;;;11.77;3.25;;;14.80;99.90;;;;;;5049722;28;20037;-62
2023/05/24 12:45:06;;;;;;;9.82;3.42;;;14.90;99.90;;;;;;5046060;28;20098;-62
2023/05/24 12:47:31;;;;;;;7.10;2.70;;;15.10;99.90;;;;;;5044774;28;20040;-61